createdAt,value
2019-05-10T00:02:32.759Z,13.30
2019-05-10T00:05:23.713Z,13.32
2019-05-10T00:08:16.714Z,13.16
2019-05-10T00:10:53.294Z,13.31
2019-05-10T00:13:30.458Z,13.26
2019-05-10T00:16:06.157Z,13.16
2019-05-10T00:18:41.431Z,12.93
2019-05-10T00:21:16.582Z,12.83
2019-05-10T00:23:51.934Z,12.75
2019-05-10T00:26:26.981Z,12.79
2019-05-10T00:29:02.436Z,12.72
2019-05-10T00:31:37.661Z,12.72
2019-05-10T00:34:12.354Z,12.76
2019-05-10T00:36:47.338Z,12.65
2019-05-10T00:39:22.549Z,12.57
2019-05-10T00:41:58.008Z,12.58
2019-05-10T00:44:32.673Z,12.63
2019-05-10T00:47:07.275Z,12.63
2019-05-10T00:49:41.921Z,12.58
2019-05-10T00:52:16.425Z,12.64
2019-05-10T00:54:51.260Z,12.64
2019-05-10T00:57:25.888Z,12.67
2019-05-10T01:00:00.422Z,12.72
2019-05-10T01:02:35.267Z,12.72
2019-05-10T01:05:10.289Z,12.75
2019-05-10T01:07:44.947Z,12.75
2019-05-10T01:10:19.953Z,12.88
2019-05-10T01:12:54.436Z,12.88
2019-05-10T01:15:29.288Z,13.08
2019-05-10T01:18:05.283Z,13.00
2019-05-10T01:20:39.945Z,12.83
2019-05-10T01:23:14.415Z,12.65
2019-05-10T01:25:49.275Z,12.79
2019-05-10T01:28:23.922Z,12.85
2019-05-10T01:30:58.398Z,12.84
2019-05-10T01:33:33.282Z,12.78
2019-05-10T01:36:08.265Z,12.61
2019-05-10T01:38:43.271Z,12.53
2019-05-10T01:41:17.933Z,12.62
2019-05-10T01:43:52.658Z,12.49
2019-05-10T01:46:27.007Z,12.49
2019-05-10T01:49:01.279Z,12.38
2019-05-10T01:51:35.948Z,12.48
2019-05-10T01:54:10.786Z,12.55
2019-05-10T01:56:44.065Z,12.55
2019-05-10T01:59:18.277Z,12.47
2019-05-10T02:01:52.752Z,12.41
2019-05-10T02:04:43.953Z,12.51
2019-05-10T02:07:19.151Z,12.46
2019-05-10T02:09:53.948Z,12.34
2019-05-10T02:12:28.111Z,12.27
2019-05-10T02:15:02.667Z,12.28
2019-05-10T02:17:38.279Z,12.28
2019-05-10T02:20:13.261Z,12.35
2019-05-10T02:22:47.784Z,12.55
2019-05-10T02:25:21.032Z,12.55
2019-05-10T02:27:55.291Z,12.50
2019-05-10T02:30:30.278Z,12.47
2019-05-10T02:33:05.119Z,12.51
2019-05-10T02:35:39.941Z,12.45
2019-05-10T02:38:14.704Z,12.52
2019-05-10T02:40:49.288Z,12.52
2019-05-10T02:43:24.252Z,12.53
2019-05-10T02:45:59.715Z,12.45
2019-05-10T02:48:33.111Z,12.56
2019-05-10T02:51:07.782Z,12.59
2019-05-10T02:53:40.859Z,12.59
2019-05-10T02:56:29.898Z,12.66
2019-05-10T02:58:55.723Z,12.66
2019-05-10T03:01:31.480Z,12.61
2019-05-10T03:04:06.282Z,12.68
2019-05-10T03:06:43.565Z,12.72
2019-05-10T03:09:18.286Z,12.72
2019-05-10T03:11:53.296Z,12.64
2019-05-10T03:14:29.460Z,12.66
2019-05-10T03:17:06.283Z,12.73
2019-05-10T03:19:41.352Z,12.64
2019-05-10T03:22:17.278Z,12.60
2019-05-10T03:24:51.954Z,12.59
2019-05-10T03:27:26.805Z,12.57
2019-05-10T03:29:59.861Z,12.46
2019-05-10T03:32:34.287Z,12.46
2019-05-10T03:35:09.718Z,12.49
2019-05-10T03:37:43.053Z,12.49
2019-05-10T03:40:17.704Z,12.51
2019-05-10T03:42:52.117Z,12.61
2019-05-10T03:45:28.283Z,12.59
2019-05-10T03:48:03.107Z,12.52
2019-05-10T03:50:37.949Z,12.52
2019-05-10T03:53:12.783Z,12.48
2019-05-10T03:55:47.277Z,12.48
2019-05-10T03:58:21.747Z,12.44
2019-05-10T04:00:54.858Z,12.45
2019-05-10T04:03:29.432Z,12.59
2019-05-10T04:06:04.273Z,12.59
2019-05-10T04:08:38.876Z,12.58
2019-05-10T04:11:13.421Z,12.58
2019-05-10T04:13:48.284Z,12.64
2019-05-10T04:16:23.287Z,12.63
2019-05-10T04:18:57.942Z,12.70
2019-05-10T04:21:32.732Z,12.63
2019-05-10T04:24:07.940Z,12.65
2019-05-10T04:27:35.686Z,12.68
2019-05-10T04:30:11.073Z,12.71
2019-05-10T04:32:45.746Z,12.66
2019-05-10T04:35:18.960Z,12.69
2019-05-10T04:37:53.272Z,12.57
2019-05-10T04:40:27.714Z,12.56
2019-05-10T04:43:03.265Z,12.55
2019-05-10T04:45:38.423Z,12.49
2019-05-10T04:48:13.614Z,12.47
2019-05-10T04:50:49.246Z,12.50
2019-05-10T04:53:24.298Z,12.55
2019-05-10T04:55:59.499Z,12.67
2019-05-10T04:58:34.962Z,13.00
2019-05-10T05:01:10.290Z,12.93
2019-05-10T05:03:45.269Z,12.93
2019-05-10T05:06:20.292Z,12.97
2019-05-10T05:08:55.275Z,13.02
2019-05-10T05:11:29.687Z,13.01
2019-05-10T05:14:03.933Z,13.00
2019-05-10T05:16:38.144Z,13.01
2019-05-10T05:19:13.533Z,12.90
2019-05-10T05:21:47.929Z,12.90
2019-05-10T05:24:23.179Z,12.85
2019-05-10T05:26:58.268Z,12.80
2019-05-10T05:29:32.605Z,12.78
2019-05-10T05:32:07.263Z,12.77
2019-05-10T05:34:42.144Z,12.80
2019-05-10T05:37:16.904Z,12.77
2019-05-10T05:39:51.366Z,12.60
2019-05-10T05:42:27.862Z,12.57
2019-05-10T05:45:00.854Z,12.78
2019-05-10T05:47:37.598Z,12.78
2019-05-10T05:50:10.657Z,12.76
2019-05-10T05:52:45.278Z,12.70
2019-05-10T05:55:22.926Z,12.69
2019-05-10T05:57:59.179Z,12.72
2019-05-10T06:00:37.649Z,12.72
2019-05-10T06:03:09.287Z,12.64
2019-05-10T06:05:43.735Z,12.37
2019-05-10T06:08:22.977Z,12.48
2019-05-10T06:10:57.947Z,12.48
2019-05-10T06:13:32.238Z,12.67
2019-05-10T06:16:12.761Z,12.67
2019-05-10T06:18:47.247Z,12.62
2019-05-10T06:21:25.088Z,12.44
2019-05-10T06:23:59.239Z,12.44
2019-05-10T06:26:32.284Z,12.44
2019-05-10T06:29:16.419Z,12.42
2019-05-10T06:31:42.049Z,12.38
2019-05-10T06:34:16.676Z,12.50
2019-05-10T06:36:51.795Z,12.50
2019-05-10T06:39:26.405Z,12.50
2019-05-10T06:42:01.223Z,12.49
2019-05-10T06:44:35.877Z,12.46
2019-05-10T06:47:11.394Z,12.50
2019-05-10T06:49:50.752Z,12.44
2019-05-10T06:52:27.572Z,12.44
2019-05-10T06:54:58.816Z,12.60
2019-05-10T06:57:32.053Z,12.71
2019-05-10T07:00:08.081Z,12.75
2019-05-10T07:02:42.759Z,12.75
2019-05-10T07:05:17.273Z,12.94
2019-05-10T07:07:51.719Z,13.06
2019-05-10T07:10:25.380Z,13.11
2019-05-10T07:13:03.610Z,13.36
2019-05-10T07:15:41.987Z,13.65
2019-05-10T07:18:16.866Z,13.76
2019-05-10T07:20:49.269Z,13.93
2019-05-10T07:23:24.104Z,14.06
2019-05-10T07:25:58.940Z,14.21
2019-05-10T07:28:33.941Z,14.15
2019-05-10T07:31:08.985Z,14.15
2019-05-10T07:33:43.270Z,14.31
2019-05-10T07:36:20.873Z,14.74
2019-05-10T07:38:54.125Z,14.89
2019-05-10T07:41:29.285Z,15.34
2019-05-10T07:44:07.715Z,15.58
2019-05-10T07:46:46.415Z,15.54
2019-05-10T07:49:17.944Z,15.50
2019-05-10T07:51:52.385Z,15.50
2019-05-10T07:54:28.203Z,15.79
2019-05-10T07:57:02.729Z,16.22
2019-05-10T07:59:50.189Z,16.67
2019-05-10T08:02:14.934Z,17.34
2019-05-10T08:04:53.030Z,17.38
2019-05-10T08:07:26.272Z,17.38
2019-05-10T08:10:04.463Z,17.94
2019-05-10T08:12:41.429Z,18.18
2019-05-10T08:15:13.364Z,17.95
2019-05-10T08:17:50.698Z,17.91
2019-05-10T08:20:38.241Z,17.81
2019-05-10T08:23:02.696Z,17.76
2019-05-10T08:25:40.974Z,17.46
2019-05-10T08:28:15.284Z,17.78
2019-05-10T08:30:53.458Z,18.99
2019-05-10T08:33:26.409Z,20.39
2019-05-10T08:36:04.951Z,19.94
2019-05-10T08:38:39.594Z,19.18
2019-05-10T08:41:17.998Z,18.63
2019-05-10T08:43:52.400Z,18.31
2019-05-10T08:46:34.975Z,17.48
2019-05-10T08:49:02.324Z,17.06
2019-05-10T08:51:43.753Z,17.17
2019-05-10T08:54:13.279Z,16.93
2019-05-10T08:56:52.978Z,16.91
2019-05-10T08:59:26.687Z,17.06
2019-05-10T09:02:02.107Z,16.71
2019-05-10T09:04:42.825Z,16.71
2019-05-10T09:07:13.327Z,16.61
2019-05-10T09:09:50.088Z,16.09
2019-05-10T09:12:24.280Z,17.20
2019-05-10T09:15:06.570Z,19.08
2019-05-10T09:17:35.696Z,20.49
2019-05-10T09:20:20.170Z,21.53
2019-05-10T09:22:47.331Z,21.45
2019-05-10T09:25:29.224Z,21.90
2019-05-10T09:28:02.477Z,22.39
2019-05-10T09:30:52.209Z,22.86
2019-05-10T09:33:14.238Z,21.62
2019-05-10T09:35:52.331Z,19.65
2019-05-10T09:38:28.724Z,17.10
2019-05-10T09:41:02.574Z,17.10
2019-05-10T09:43:40.488Z,16.71
2019-05-10T09:46:14.156Z,16.81
2019-05-10T09:48:54.676Z,16.81
2019-05-10T09:51:30.146Z,16.65
2019-05-10T09:54:01.897Z,16.36
2019-05-10T09:56:39.647Z,16.57
2019-05-10T09:59:12.426Z,16.89
2019-05-10T10:01:48.452Z,17.59
2019-05-10T10:04:23.285Z,18.88
2019-05-10T10:06:58.262Z,18.81
2019-05-10T10:09:42.004Z,18.67
2019-05-10T10:12:09.055Z,20.35
2019-05-10T10:14:43.493Z,20.95
2019-05-10T10:17:20.525Z,20.24
2019-05-10T10:19:54.294Z,19.45
2019-05-10T10:22:29.116Z,19.73
2019-05-10T10:25:04.101Z,20.93
2019-05-10T10:27:39.642Z,20.12
2019-05-10T10:30:21.202Z,19.43
2019-05-10T10:32:51.398Z,18.71
2019-05-10T10:35:29.389Z,18.31
2019-05-10T10:38:03.473Z,18.12
2019-05-10T10:40:44.108Z,17.87
2019-05-10T10:43:17.855Z,17.87
2019-05-10T10:45:51.657Z,18.03
2019-05-10T10:48:28.383Z,17.65
2019-05-10T10:51:02.868Z,17.73
2019-05-10T10:53:37.281Z,17.73
2019-05-10T10:58:58.357Z,19.09
2019-05-10T11:01:49.196Z,19.27
2019-05-10T11:04:09.812Z,18.85
2019-05-10T11:06:44.450Z,18.67
2019-05-10T11:09:20.671Z,18.35
2019-05-10T11:11:55.457Z,18.16
2019-05-10T11:14:31.960Z,17.90
2019-05-10T11:17:06.707Z,17.94
2019-05-10T11:19:41.810Z,17.99
2019-05-10T11:22:16.297Z,17.98
2019-05-10T11:24:59.531Z,17.89
2019-05-10T11:27:25.771Z,17.94
2019-05-10T11:30:00.889Z,17.93
2019-05-10T11:32:36.938Z,18.36
2019-05-10T11:35:17.438Z,18.30
2019-05-10T11:37:50.681Z,18.30
2019-05-10T11:40:30.661Z,18.46
2019-05-10T11:43:01.517Z,22.53
2019-05-10T11:45:36.792Z,22.53
2019-05-10T11:48:10.875Z,23.35
2019-05-10T11:50:45.342Z,21.64
2019-05-10T11:53:23.585Z,20.39
2019-05-10T11:55:56.275Z,19.56
2019-05-10T11:58:31.214Z,19.20
2019-05-10T12:01:14.780Z,19.08
2019-05-10T12:03:42.620Z,18.99
2019-05-10T12:06:15.808Z,19.34
2019-05-10T12:08:56.906Z,19.93
2019-05-10T12:11:33.150Z,19.55
2019-05-10T12:14:03.284Z,19.50
2019-05-10T12:16:37.962Z,19.36
2019-05-10T12:19:19.864Z,20.18
2019-05-10T12:21:48.368Z,21.97
2019-05-10T12:24:39.003Z,21.95
2019-05-10T12:27:17.461Z,19.88
2019-05-10T12:29:36.274Z,19.88
2019-05-10T12:32:11.130Z,19.58
2019-05-10T12:34:50.446Z,18.43
2019-05-10T12:37:22.277Z,18.43
2019-05-10T12:40:06.175Z,18.13
2019-05-10T12:42:31.862Z,18.00
2019-05-10T12:45:05.252Z,17.78
2019-05-10T12:47:41.454Z,17.63
2019-05-10T12:50:16.773Z,17.75
2019-05-10T12:53:02.889Z,17.73
2019-05-10T12:55:26.094Z,17.78
2019-05-10T12:58:00.942Z,17.68
2019-05-10T13:00:35.718Z,17.96
2019-05-10T13:03:12.704Z,17.96
2019-05-10T13:05:52.674Z,18.53
2019-05-10T13:08:21.516Z,21.54
2019-05-10T13:10:56.254Z,23.04
2019-05-10T13:13:30.884Z,21.85
2019-05-10T13:16:09.497Z,21.85
2019-05-10T13:18:50.260Z,20.75
2019-05-10T13:21:20.921Z,22.48
2019-05-10T13:23:53.764Z,21.59
2019-05-10T13:26:29.285Z,21.59
2019-05-10T13:29:08.128Z,21.71
2019-05-10T13:31:42.882Z,21.17
2019-05-10T13:34:15.314Z,20.49
2019-05-10T13:36:49.951Z,19.14
2019-05-10T13:39:27.394Z,18.50
2019-05-10T13:42:03.261Z,18.50
2019-05-10T13:44:42.924Z,17.88
2019-05-10T13:47:14.277Z,17.88
2019-05-10T13:49:49.416Z,18.16
2019-05-10T13:52:29.778Z,18.33
2019-05-10T13:55:00.695Z,18.85
2019-05-10T13:57:35.286Z,18.76
2019-05-10T14:00:10.451Z,18.88
2019-05-10T14:02:45.102Z,18.85
2019-05-10T14:05:22.298Z,18.67
2019-05-10T14:07:57.284Z,18.24
2019-05-10T14:10:32.303Z,18.19
2019-05-10T14:13:07.331Z,18.17
2019-05-10T14:15:42.276Z,18.17
2019-05-10T14:18:17.286Z,17.96
2019-05-10T14:20:52.302Z,17.35
2019-05-10T14:23:28.973Z,16.98
2019-05-10T14:26:09.162Z,16.91
2019-05-10T14:28:40.696Z,16.91
2019-05-10T14:31:14.137Z,17.03
2019-05-10T14:34:14.134Z,16.90
2019-05-10T14:36:25.279Z,16.90
2019-05-10T14:39:00.272Z,16.95
2019-05-10T14:41:35.264Z,16.79
2019-05-10T14:44:10.273Z,16.78
2019-05-10T14:46:45.270Z,16.64
2019-05-10T14:49:19.889Z,16.30
2019-05-10T14:51:59.596Z,16.03
2019-05-10T14:54:43.377Z,15.73
2019-05-10T14:57:06.277Z,15.97
2019-05-10T14:59:40.818Z,15.97
2019-05-10T15:02:16.855Z,16.05
2019-05-10T15:04:52.003Z,15.80
2019-05-10T15:07:26.942Z,15.69
2019-05-10T15:10:02.365Z,15.69
2019-05-10T15:12:35.269Z,15.91
2019-05-10T15:15:10.374Z,16.97
2019-05-10T15:17:45.288Z,17.63
2019-05-10T15:20:20.517Z,19.29
2019-05-10T15:22:55.311Z,19.29
2019-05-10T15:25:30.290Z,19.08
2019-05-10T15:28:05.288Z,18.64
2019-05-10T15:30:45.841Z,18.91
2019-05-10T15:33:16.716Z,18.85
2019-05-10T15:35:51.736Z,18.94
2019-05-10T15:38:26.285Z,19.59
2019-05-10T15:41:01.117Z,19.59
2019-05-10T15:43:35.947Z,19.31
2019-05-10T15:46:10.507Z,19.01
2019-05-10T15:48:45.335Z,18.73
2019-05-10T15:51:34.121Z,18.67
2019-05-10T15:56:35.639Z,18.47
2019-05-10T15:59:12.712Z,18.61
2019-05-10T15:59:23.798Z,18.47
2019-05-10T16:01:46.001Z,18.61
2019-05-10T16:04:21.282Z,18.65
2019-05-10T16:06:56.236Z,18.67
2019-05-10T16:09:31.237Z,18.43
2019-05-10T16:12:08.709Z,18.34
2019-05-10T16:14:45.438Z,18.34
2019-05-10T16:17:23.561Z,18.28
2019-05-10T16:19:59.728Z,18.22
2019-05-10T16:22:32.373Z,18.11
2019-05-10T16:25:07.381Z,18.04
2019-05-10T16:27:44.922Z,18.08
2019-05-10T16:30:20.311Z,18.02
2019-05-10T16:32:55.288Z,17.91
2019-05-10T16:35:38.352Z,17.70
2019-05-10T16:38:04.819Z,17.70
2019-05-10T16:40:39.286Z,17.59
2019-05-10T16:43:18.953Z,17.64
2019-05-10T16:45:50.387Z,17.68
2019-05-10T16:48:28.276Z,17.57
2019-05-10T16:51:03.909Z,17.47
2019-05-10T16:53:37.720Z,17.37
2019-05-10T16:56:13.253Z,17.41
2019-05-10T16:58:53.269Z,17.40
2019-05-10T17:01:27.484Z,17.40
2019-05-10T17:04:01.980Z,17.39
2019-05-10T17:06:40.345Z,17.50
2019-05-10T17:09:18.182Z,17.48
2019-05-10T17:11:50.285Z,17.30
2019-05-10T17:14:24.780Z,17.32
2019-05-10T17:17:00.149Z,17.32
2019-05-10T17:19:36.126Z,17.35
2019-05-10T17:22:12.260Z,17.32
2019-05-10T17:24:46.700Z,17.27
2019-05-10T17:27:21.313Z,17.30
2019-05-10T17:29:55.746Z,17.03
2019-05-10T17:32:28.769Z,17.03
2019-05-10T17:35:04.701Z,16.96
2019-05-10T17:37:39.963Z,16.88
2019-05-10T17:40:14.956Z,16.81
2019-05-10T17:42:51.630Z,16.76
2019-05-10T17:45:28.468Z,16.67
2019-05-10T17:48:08.062Z,16.67
2019-05-10T17:50:39.338Z,16.60
2019-05-10T17:53:14.921Z,16.62
2019-05-10T17:55:55.732Z,16.55
2019-05-10T17:58:27.771Z,16.43
2019-05-10T18:01:03.254Z,16.32
2019-05-10T18:03:38.260Z,16.30
2019-05-10T18:06:23.526Z,16.34
2019-05-10T18:08:48.951Z,16.12
2019-05-10T18:11:23.915Z,16.12
2019-05-10T18:13:58.567Z,16.11
2019-05-10T18:16:33.268Z,16.04
2019-05-10T18:19:07.942Z,16.04
2019-05-10T18:24:01.333Z,16.11
2019-05-10T18:26:39.581Z,15.98
2019-05-10T18:29:11.305Z,16.07
2019-05-10T18:31:54.485Z,16.13
2019-05-10T18:34:26.403Z,16.13
2019-05-10T18:36:56.871Z,16.03
2019-05-10T18:39:33.587Z,16.04
2019-05-10T18:42:11.291Z,16.07
2019-05-10T18:44:51.380Z,16.09
2019-05-10T18:47:22.074Z,16.07
2019-05-10T18:49:56.418Z,15.98
2019-05-10T18:52:31.299Z,15.98
2019-05-10T18:55:05.944Z,15.91
2019-05-10T18:57:40.290Z,15.80
2019-05-10T19:00:17.517Z,15.80
2019-05-10T19:02:55.381Z,15.74
2019-05-10T19:05:33.174Z,15.67
2019-05-10T19:08:06.799Z,15.48
2019-05-10T19:10:40.362Z,15.48
2019-05-10T19:13:15.984Z,15.41
2019-05-10T19:15:52.859Z,15.34
2019-05-10T19:18:27.147Z,15.15
2019-05-10T19:21:02.250Z,15.12
2019-05-10T19:23:37.608Z,15.12
2019-05-10T19:26:13.478Z,15.06
2019-05-10T19:28:48.660Z,14.98
2019-05-10T19:31:24.895Z,14.82
2019-05-10T19:34:00.284Z,14.82
2019-05-10T19:36:36.295Z,14.73
2019-05-10T19:39:12.121Z,14.64
2019-05-10T19:41:46.954Z,14.60
2019-05-10T19:44:21.748Z,14.48
2019-05-10T19:46:56.297Z,14.48
2019-05-10T19:49:31.118Z,14.45
2019-05-10T19:52:05.746Z,14.41
2019-05-10T19:54:38.696Z,14.31
2019-05-10T19:57:21.741Z,14.30
2019-05-10T19:59:55.162Z,14.22
2019-05-10T20:02:31.722Z,14.20
2019-05-10T20:05:06.688Z,14.17
2019-05-10T20:07:45.939Z,14.15
2019-05-10T20:10:17.276Z,14.15
2019-05-10T20:12:51.665Z,14.11
2019-05-10T20:15:25.945Z,14.06
2019-05-10T20:18:00.452Z,14.06
2019-05-10T20:20:35.267Z,14.05
2019-05-10T20:23:09.742Z,14.03
2019-05-10T20:25:44.136Z,14.06
2019-05-10T20:28:18.876Z,14.04
2019-05-10T20:30:54.296Z,13.96
2019-05-10T20:33:29.109Z,13.97
2019-05-10T20:36:04.236Z,13.94
2019-05-10T20:38:39.244Z,13.94
2019-05-10T20:41:13.946Z,14.00
2019-05-10T20:43:47.121Z,14.06
2019-05-10T20:46:37.283Z,14.12
2019-05-10T20:49:14.288Z,14.02
2019-05-10T20:51:49.097Z,13.84
2019-05-10T20:54:24.293Z,13.68
2019-05-10T20:56:59.300Z,13.67
2019-05-10T20:59:34.301Z,13.64
2019-05-10T21:02:09.353Z,13.51
2019-05-10T21:04:44.322Z,13.57
2019-05-10T21:07:19.281Z,13.60
2019-05-10T21:09:54.292Z,13.61
2019-05-10T21:12:28.947Z,13.65
2019-05-10T21:15:02.110Z,13.66
2019-05-10T21:17:36.790Z,13.81
2019-05-10T21:20:11.054Z,13.81
2019-05-10T21:22:45.308Z,13.74
2019-05-10T21:25:19.769Z,13.74
2019-05-10T21:27:52.709Z,13.67
2019-05-10T21:30:26.945Z,13.67
2019-05-10T21:33:00.033Z,13.55
2019-05-10T21:35:32.850Z,13.41
2019-05-10T21:38:08.282Z,13.46
2019-05-10T21:40:42.662Z,13.41
2019-05-10T21:43:17.286Z,13.41
2019-05-10T21:45:51.731Z,13.44
2019-05-10T21:48:26.306Z,13.46
2019-05-10T21:51:00.834Z,13.48
2019-05-10T21:53:34.345Z,13.54
2019-05-10T21:56:09.705Z,13.59
2019-05-10T21:58:44.294Z,13.59
2019-05-10T22:01:19.256Z,13.58
2019-05-10T22:03:53.878Z,13.58
2019-05-10T22:06:28.282Z,13.57
2019-05-10T22:09:02.890Z,13.54
2019-05-10T22:11:36.135Z,13.53
2019-05-10T22:14:09.092Z,13.56
2019-05-10T22:16:43.964Z,13.57
2019-05-10T22:19:19.305Z,13.51
2019-05-10T22:21:55.457Z,13.51
2019-05-10T22:24:30.829Z,13.49
2019-05-10T22:27:04.390Z,13.49
2019-05-10T22:29:40.363Z,13.47
2019-05-10T22:32:15.302Z,13.46
2019-05-10T22:34:49.796Z,13.41
2019-05-10T22:37:24.292Z,13.34
2019-05-10T22:39:58.953Z,13.30
2019-05-10T22:42:32.272Z,13.20
2019-05-10T22:45:07.954Z,13.27
2019-05-10T22:47:42.317Z,13.27
2019-05-10T22:50:17.330Z,13.24
2019-05-10T22:52:51.948Z,13.20
2019-05-10T22:55:25.067Z,13.10
2019-05-10T22:57:59.500Z,13.06
2019-05-10T23:00:34.281Z,12.94
2019-05-10T23:03:09.125Z,12.87
2019-05-10T23:05:43.827Z,12.80
2019-05-10T23:08:16.868Z,12.80
2019-05-10T23:10:51.321Z,12.76
2019-05-10T23:13:29.287Z,12.76
2019-05-10T23:16:09.319Z,12.76
2019-05-10T23:18:44.285Z,12.64
2019-05-10T23:21:19.044Z,12.58
2019-05-10T23:23:53.754Z,12.65
2019-05-10T23:26:27.305Z,12.65
2019-05-10T23:29:01.562Z,12.56
2019-05-10T23:31:35.946Z,12.56
2019-05-10T23:34:10.274Z,12.60
2019-05-10T23:36:44.763Z,12.55
2019-05-10T23:39:17.797Z,12.49
2019-05-10T23:41:51.902Z,12.50
2019-05-10T23:44:24.875Z,12.49
2019-05-10T23:46:57.675Z,12.52
2019-05-10T23:49:31.940Z,12.52
2019-05-10T23:52:04.965Z,12.51
2019-05-10T23:54:39.288Z,12.49
2019-05-10T23:57:13.690Z,12.49
2019-05-10T23:59:47.950Z,12.43
